createdAt,value
2022-10-28T00:00:45.861Z,101485.97
2022-10-28T00:01:48.923Z,101492.19
2022-10-28T00:02:52.741Z,101480.38
2022-10-28T00:03:57.544Z,101475.81
2022-10-28T00:04:59.455Z,101485.53
2022-10-28T00:06:03.892Z,101492.59
2022-10-28T00:07:06.325Z,101484.31
2022-10-28T00:08:09.528Z,101488.84
2022-10-28T00:09:12.411Z,101483.47
2022-10-28T00:10:15.591Z,101478.94
2022-10-28T00:11:19.156Z,101485.94
2022-10-28T00:12:22.059Z,101490.28
2022-10-28T00:13:24.077Z,101476.03
2022-10-28T00:14:27.385Z,101483.03
2022-10-28T00:15:29.364Z,101490.09
2022-10-28T00:16:34.678Z,101472.91
2022-10-28T00:17:36.616Z,101479.91
2022-10-28T00:18:41.244Z,101472.69
2022-10-28T00:19:43.232Z,101473.50
2022-10-28T00:20:46.105Z,101468.75
2022-10-28T00:21:49.102Z,101482.22
2022-10-28T00:22:51.050Z,101470.16
2022-10-28T00:23:54.544Z,101467.47
2022-10-28T00:24:56.480Z,101478.03
2022-10-28T00:26:05.922Z,101470.16
2022-10-28T00:27:07.872Z,101477.19
2022-10-28T00:28:10.997Z,101473.09
2022-10-28T00:29:14.972Z,101477.41
2022-10-28T00:30:17.977Z,101465.84
2022-10-28T00:31:22.324Z,101466.84
2022-10-28T00:32:25.568Z,101461.47
2022-10-28T00:33:27.491Z,101457.16
2022-10-28T00:34:31.716Z,101454.44
2022-10-28T00:35:33.957Z,101456.09
2022-10-28T00:36:38.413Z,101469.56
2022-10-28T00:37:40.431Z,101449.06
2022-10-28T00:38:44.663Z,101470.59
2022-10-28T00:39:46.566Z,101462.31
2022-10-28T00:40:49.791Z,101470.38
2022-10-28T00:41:55.160Z,101470.59
2022-10-28T00:42:57.050Z,101477.63
2022-10-28T00:44:04.083Z,101479.53
2022-10-28T00:45:07.413Z,101472.47
2022-10-28T00:46:19.602Z,101468.13
2022-10-28T00:47:31.460Z,101462.75
2022-10-28T00:48:34.912Z,101464.81
2022-10-28T00:49:38.346Z,101463.19
2022-10-28T00:50:47.145Z,101471.25
2022-10-28T00:51:53.692Z,101466.88
2022-10-28T00:53:01.739Z,101464.41
2022-10-28T00:54:05.528Z,101466.06
2022-10-28T00:55:10.202Z,101458.00
2022-10-28T00:56:13.017Z,101467.31
2022-10-28T00:57:19.100Z,101462.78
2022-10-28T00:58:25.128Z,101476.44
2022-10-28T00:59:30.727Z,101470.22
2022-10-28T01:00:32.750Z,101464.84
2022-10-28T01:01:35.809Z,101467.53
2022-10-28T01:02:44.110Z,101470.22
2022-10-28T01:03:48.150Z,101472.91
2022-10-28T01:04:52.079Z,101471.06
2022-10-28T01:05:55.525Z,101470.22
2022-10-28T01:06:58.811Z,101468.56
2022-10-28T01:08:03.377Z,101467.75
2022-10-28T01:09:06.458Z,101463.19
2022-10-28T01:10:09.664Z,101473.94
2022-10-28T01:11:25.981Z,101471.25
2022-10-28T01:12:35.307Z,101472.31
2022-10-28T01:13:47.282Z,101471.47
2022-10-28T01:15:04.640Z,101463.41
2022-10-28T01:16:17.736Z,101467.97
2022-10-28T01:17:31.967Z,101461.97
2022-10-28T01:18:42.808Z,101460.91
2022-10-28T01:20:04.315Z,101461.97
2022-10-28T01:21:35.952Z,101462.97
2022-10-28T01:22:47.663Z,101454.09
2022-10-28T01:24:04.961Z,101468.59
2022-10-28T01:25:45.703Z,101454.53
2022-10-28T01:27:18.522Z,101454.31
2022-10-28T01:28:35.621Z,101460.72
2022-10-28T01:29:50.604Z,101461.56
2022-10-28T01:31:11.008Z,101460.72
2022-10-28T01:32:26.636Z,101463.41
2022-10-28T01:33:35.771Z,101455.56
2022-10-28T01:34:48.001Z,101468.19
2022-10-28T01:35:53.931Z,101479.78
2022-10-28T01:37:01.088Z,101469.22
2022-10-28T01:38:22.540Z,101476.47
2022-10-28T01:39:33.207Z,101478.34
2022-10-28T01:40:43.462Z,101477.53
2022-10-28T01:41:52.210Z,101471.50
2022-10-28T01:42:59.475Z,101470.69
2022-10-28T01:44:07.435Z,101462.41
2022-10-28T01:45:16.591Z,101459.13
2022-10-28T01:46:25.051Z,101458.28
2022-10-28T01:47:31.381Z,101456.63
2022-10-28T01:48:39.764Z,101459.31
2022-10-28T01:49:48.955Z,101463.88
2022-10-28T01:50:55.623Z,101462.03
2022-10-28T01:52:03.184Z,101470.09
2022-10-28T01:53:10.825Z,101471.09
2022-10-28T01:54:18.555Z,101465.72
2022-10-28T01:55:25.981Z,101470.31
2022-10-28T01:56:34.177Z,101465.72
2022-10-28T01:57:39.995Z,101454.97
2022-10-28T01:58:45.228Z,101456.63
2022-10-28T01:59:48.632Z,101453.09
2022-10-28T02:00:52.193Z,101453.72
2022-10-28T02:01:55.606Z,101455.59
2022-10-28T02:02:58.861Z,101452.06
2022-10-28T02:04:01.459Z,101458.50
2022-10-28T02:05:41.855Z,101460.97
2022-10-28T02:06:49.037Z,101460.97
2022-10-28T02:07:54.538Z,101458.28
2022-10-28T02:09:14.307Z,101443.97
2022-10-28T02:10:22.782Z,101447.50
2022-10-28T02:11:36.008Z,101447.50
2022-10-28T02:12:39.489Z,101447.28
2022-10-28T02:13:47.069Z,101445.44
2022-10-28T02:16:23.144Z,101447.06
2022-10-28T02:17:37.499Z,101447.91
2022-10-28T02:18:47.781Z,101448.75
2022-10-28T02:19:55.127Z,101445.44
2022-10-28T02:21:04.210Z,101444.16
2022-10-28T02:22:18.605Z,101443.38
2022-10-28T02:23:29.611Z,101444.38
2022-10-28T02:24:40.537Z,101437.38
2022-10-28T02:25:48.088Z,101436.53
2022-10-28T02:26:57.321Z,101439.44
2022-10-28T02:28:06.135Z,101436.75
2022-10-28T02:29:16.042Z,101432.41
2022-10-28T02:30:22.721Z,101438.00
2022-10-28T02:31:29.566Z,101437.19
2022-10-28T02:32:38.516Z,101433.88
2022-10-28T02:33:42.189Z,101439.25
2022-10-28T02:34:48.550Z,101431.38
2022-10-28T02:35:54.565Z,101424.56
2022-10-28T02:37:00.332Z,101428.91
2022-10-28T02:38:09.191Z,101427.25
2022-10-28T02:39:12.827Z,101430.97
2022-10-28T02:40:19.385Z,101433.88
2022-10-28T02:41:28.060Z,101433.25
2022-10-28T02:42:34.219Z,101429.97
2022-10-28T02:43:40.462Z,101430.97
2022-10-28T02:44:48.930Z,101432.81
2022-10-28T02:45:56.720Z,101421.44
2022-10-28T02:47:02.824Z,101426.22
2022-10-28T02:48:10.913Z,101419.19
2022-10-28T02:49:15.165Z,101416.72
2022-10-28T02:50:23.432Z,101413.41
2022-10-28T02:51:28.761Z,101417.34
2022-10-28T02:52:34.099Z,101411.13
2022-10-28T02:53:47.728Z,101413.19
2022-10-28T02:54:55.191Z,101411.56
2022-10-28T02:56:00.324Z,101404.53
2022-10-28T02:57:07.197Z,101411.16
2022-10-28T02:58:10.816Z,101402.47
2022-10-28T02:59:14.655Z,101406.81
2022-10-28T03:00:19.132Z,101408.06
2022-10-28T03:01:22.248Z,101400.19
2022-10-28T03:02:24.821Z,101410.75
2022-10-28T03:03:29.090Z,101401.06
2022-10-28T03:04:31.273Z,101404.97
2022-10-28T03:05:34.191Z,101403.53
2022-10-28T03:06:37.115Z,101402.94
2022-10-28T03:07:39.080Z,101403.34
2022-10-28T03:08:41.994Z,101400.03
2022-10-28T03:09:43.903Z,101397.56
2022-10-28T03:10:46.773Z,101398.78
2022-10-28T03:11:48.758Z,101396.31
2022-10-28T03:12:51.673Z,101399.00
2022-10-28T03:13:53.656Z,101401.06
2022-10-28T03:14:56.559Z,101396.53
2022-10-28T03:15:58.469Z,101394.06
2022-10-28T03:17:01.357Z,101390.53
2022-10-28T03:18:03.456Z,101395.09
2022-10-28T03:20:11.039Z,101388.88
2022-10-28T03:21:14.026Z,101389.91
2022-10-28T03:22:16.259Z,101384.53
2022-10-28T03:23:19.180Z,101381.03
2022-10-28T03:24:21.065Z,101384.53
2022-10-28T03:25:23.997Z,101382.88
2022-10-28T03:26:25.930Z,101385.56
2022-10-28T03:27:28.815Z,101380.19
2022-10-28T03:28:30.724Z,101377.72
2022-10-28T03:29:33.649Z,101375.88
2022-10-28T03:30:35.617Z,101382.06
2022-10-28T03:31:38.573Z,101376.88
2022-10-28T03:32:42.161Z,101376.88
2022-10-28T03:33:45.257Z,101377.09
2022-10-28T03:34:48.548Z,101375.25
2022-10-28T03:35:51.487Z,101378.94
2022-10-28T03:36:54.429Z,101377.31
2022-10-28T03:37:56.383Z,101380.84
2022-10-28T03:38:59.292Z,101380.84
2022-10-28T03:40:07.665Z,101381.03
2022-10-28T03:41:09.641Z,101385.59
2022-10-28T03:42:12.548Z,101387.22
2022-10-28T03:43:14.482Z,101389.31
2022-10-28T03:44:17.415Z,101376.91
2022-10-28T03:45:19.530Z,101376.91
2022-10-28T03:46:22.509Z,101377.09
2022-10-28T03:47:24.476Z,101374.63
2022-10-28T03:48:27.413Z,101369.25
2022-10-28T03:49:29.325Z,101373.00
2022-10-28T03:50:33.629Z,101368.63
2022-10-28T03:51:35.571Z,101371.31
2022-10-28T03:52:38.766Z,101367.81
2022-10-28T03:53:40.681Z,101367.81
2022-10-28T03:54:43.585Z,101365.31
2022-10-28T03:55:51.939Z,101370.69
2022-10-28T03:56:54.826Z,101366.38
2022-10-28T03:58:00.052Z,101364.53
2022-10-28T03:59:03.115Z,101364.53
2022-10-28T04:00:06.651Z,101366.38
2022-10-28T04:01:14.868Z,101369.91
2022-10-28T04:02:16.930Z,101368.00
2022-10-28T04:03:21.305Z,101366.16
2022-10-28T04:04:27.135Z,101365.31
2022-10-28T04:05:34.234Z,101362.63
2022-10-28T04:06:36.183Z,101363.47
2022-10-28T04:07:39.058Z,101361.63
2022-10-28T04:08:41.016Z,101356.25
2022-10-28T04:09:43.913Z,101354.38
2022-10-28T04:10:47.457Z,101357.88
2022-10-28T04:11:50.688Z,101353.34
2022-10-28T04:12:52.843Z,101356.03
2022-10-28T04:13:56.187Z,101353.34
2022-10-28T04:14:58.143Z,101355.81
2022-10-28T04:16:01.950Z,101354.38
2022-10-28T04:17:03.907Z,101360.38
2022-10-28T04:18:07.204Z,101359.34
2022-10-28T04:19:09.122Z,101358.50
2022-10-28T04:20:12.828Z,101354.78
2022-10-28T04:21:16.145Z,101353.13
2022-10-28T04:22:19.139Z,101352.31
2022-10-28T04:23:22.038Z,101358.72
2022-10-28T04:24:23.960Z,101356.03
2022-10-28T04:25:28.305Z,101357.03
2022-10-28T04:26:31.961Z,101363.47
2022-10-28T04:27:35.040Z,101361.84
2022-10-28T04:28:37.948Z,101368.22
2022-10-28T04:29:40.063Z,101369.28
2022-10-28T04:30:43.104Z,101370.28
2022-10-28T04:31:48.602Z,101372.38
2022-10-28T04:32:55.054Z,101371.75
2022-10-28T04:33:58.273Z,101368.22
2022-10-28T04:35:00.303Z,101370.09
2022-10-28T04:36:03.201Z,101371.13
2022-10-28T04:37:06.506Z,101363.06
2022-10-28T04:38:09.447Z,101364.13
2022-10-28T04:39:11.357Z,101357.91
2022-10-28T04:40:14.401Z,101371.13
2022-10-28T04:41:16.721Z,101363.06
2022-10-28T04:42:19.637Z,101366.59
2022-10-28T04:43:21.579Z,101363.91
2022-10-28T04:44:24.610Z,101371.13
2022-10-28T04:45:26.788Z,101378.97
2022-10-28T04:46:29.776Z,101378.97
2022-10-28T04:47:31.675Z,101372.78
2022-10-28T04:48:34.804Z,101369.28
2022-10-28T04:49:38.953Z,101372.78
2022-10-28T04:50:42.243Z,101381.88
2022-10-28T04:52:51.462Z,101368.66
2022-10-28T04:53:54.604Z,101373.19
2022-10-28T04:54:57.630Z,101371.56
2022-10-28T04:56:00.267Z,101371.56
2022-10-28T04:57:03.398Z,101368.03
2022-10-28T04:58:05.822Z,101373.63
2022-10-28T04:59:09.057Z,101370.31
2022-10-28T05:00:12.351Z,101365.75
2022-10-28T05:01:15.484Z,101360.38
2022-10-28T05:02:18.313Z,101370.31
2022-10-28T05:03:21.403Z,101359.56
2022-10-28T05:04:23.409Z,101363.28
2022-10-28T05:05:26.538Z,101357.69
2022-10-28T05:06:29.417Z,101355.00
2022-10-28T05:07:31.309Z,101346.94
2022-10-28T05:08:35.952Z,101349.66
2022-10-28T05:09:37.878Z,101343.22
2022-10-28T05:10:40.812Z,101342.41
2022-10-28T05:11:43.792Z,101339.72
2022-10-28T05:12:46.128Z,101340.53
2022-10-28T05:13:49.143Z,101336.00
2022-10-28T05:14:53.071Z,101331.47
2022-10-28T05:15:56.222Z,101330.63
2022-10-28T05:16:58.239Z,101332.25
2022-10-28T05:18:01.189Z,101342.81
2022-10-28T05:19:03.199Z,101335.78
2022-10-28T05:20:07.594Z,101332.25
2022-10-28T05:21:09.546Z,101330.41
2022-10-28T05:22:12.566Z,101331.25
2022-10-28T05:23:14.537Z,101333.31
2022-10-28T05:24:18.887Z,101322.56
2022-10-28T05:25:21.498Z,101315.34
2022-10-28T05:26:24.493Z,101319.88
2022-10-28T05:27:26.491Z,101322.56
2022-10-28T05:28:29.554Z,101317.19
2022-10-28T05:29:33.436Z,101326.28
2022-10-28T05:30:37.900Z,101326.50
2022-10-28T05:31:39.833Z,101326.50
2022-10-28T05:32:43.143Z,101329.38
2022-10-28T05:33:45.170Z,101330.41
2022-10-28T05:34:48.217Z,101336.84
2022-10-28T05:35:50.394Z,101330.00
2022-10-28T05:36:53.352Z,101326.50
2022-10-28T05:37:55.724Z,101326.69
2022-10-28T05:38:58.642Z,101315.34
2022-10-28T05:40:01.982Z,101327.13
2022-10-28T05:41:04.904Z,101317.41
2022-10-28T05:42:06.873Z,101316.59
2022-10-28T05:43:10.597Z,101316.78
2022-10-28T05:44:12.574Z,101315.97
2022-10-28T05:45:15.633Z,101312.47
2022-10-28T05:46:17.538Z,101311.63
2022-10-28T05:47:20.772Z,101309.97
2022-10-28T05:48:23.320Z,101310.16
2022-10-28T05:49:26.193Z,101313.69
2022-10-28T05:50:28.775Z,101316.16
2022-10-28T05:51:31.743Z,101318.03
2022-10-28T05:52:33.679Z,101313.69
2022-10-28T05:53:36.592Z,101309.38
2022-10-28T05:54:45.088Z,101313.91
2022-10-28T05:55:49.352Z,101305.00
2022-10-28T05:56:51.304Z,101309.56
2022-10-28T05:57:55.538Z,101308.13
2022-10-28T05:58:58.908Z,101313.50
2022-10-28T06:00:00.874Z,101309.16
2022-10-28T06:01:08.067Z,101301.09
2022-10-28T06:02:13.996Z,101304.00
2022-10-28T06:03:16.933Z,101306.47
2022-10-28T06:04:19.038Z,101310.19
2022-10-28T06:05:22.065Z,101312.88
2022-10-28T06:06:25.589Z,101309.56
2022-10-28T06:07:29.837Z,101305.44
2022-10-28T06:08:32.774Z,101315.75
2022-10-28T06:09:34.942Z,101306.69
2022-10-28T06:10:38.003Z,101320.28
2022-10-28T06:11:41.083Z,101309.38
2022-10-28T06:12:43.697Z,101314.53
2022-10-28T06:13:46.937Z,101313.50
2022-10-28T06:14:48.903Z,101310.81
2022-10-28T06:15:51.963Z,101310.59
2022-10-28T06:16:54.871Z,101311.22
2022-10-28T06:17:56.920Z,101312.84
2022-10-28T06:18:59.942Z,101318.03
2022-10-28T06:20:03.818Z,101313.28
2022-10-28T06:21:06.795Z,101318.44
2022-10-28T06:22:08.776Z,101314.53
2022-10-28T06:23:11.666Z,101313.47
2022-10-28T06:24:14.555Z,101322.16
2022-10-28T06:25:17.677Z,101314.94
2022-10-28T06:26:20.548Z,101320.94
2022-10-28T06:27:23.824Z,101315.34
2022-10-28T06:28:27.141Z,101318.84
2022-10-28T06:29:30.638Z,101317.00
2022-10-28T06:30:33.510Z,101325.66
2022-10-28T06:31:38.864Z,101318.44
2022-10-28T06:32:40.790Z,101320.91
2022-10-28T06:33:43.644Z,101322.34
2022-10-28T06:34:45.729Z,101318.66
2022-10-28T06:35:48.768Z,101325.66
2022-10-28T06:36:50.849Z,101320.06
2022-10-28T06:37:55.001Z,101327.72
2022-10-28T06:38:57.284Z,101330.19
2022-10-28T06:40:00.215Z,101323.78
2022-10-28T06:41:02.366Z,101320.69
2022-10-28T06:42:05.416Z,101323.38
2022-10-28T06:43:11.940Z,101321.31
2022-10-28T06:44:14.818Z,101321.09
2022-10-28T06:45:16.722Z,101326.25
2022-10-28T06:46:19.602Z,101322.31
2022-10-28T06:47:23.023Z,101325.63
2022-10-28T06:48:26.091Z,101316.53
2022-10-28T06:49:28.925Z,101325.19
2022-10-28T06:50:32.059Z,101313.44
2022-10-28T06:51:33.976Z,101324.78
2022-10-28T06:52:36.863Z,101322.69
2022-10-28T06:53:38.820Z,101320.84
2022-10-28T06:54:41.744Z,101326.00
2022-10-28T06:55:48.830Z,101318.56
2022-10-28T06:56:51.877Z,101324.56
2022-10-28T06:57:54.069Z,101310.06
2022-10-28T06:58:58.468Z,101321.44
2022-10-28T07:00:00.341Z,101319.38
2022-10-28T07:01:04.696Z,101326.19
2022-10-28T07:02:06.699Z,101320.59
2022-10-28T07:03:10.532Z,101321.22
2022-10-28T07:04:13.196Z,101319.34
2022-10-28T07:05:16.257Z,101315.63
2022-10-28T07:06:18.231Z,101318.09
2022-10-28T07:07:21.226Z,101320.59
2022-10-28T07:08:24.141Z,101324.09
2022-10-28T07:09:26.047Z,101313.13
2022-10-28T07:10:28.973Z,101320.97
2022-10-28T07:11:30.893Z,101324.28
2022-10-28T07:12:34.108Z,101316.00
2022-10-28T07:13:36.032Z,101326.53
2022-10-28T07:14:40.320Z,101319.09
2022-10-28T07:15:43.267Z,101321.78
2022-10-28T07:16:45.204Z,101315.16
2022-10-28T07:17:53.326Z,101320.31
2022-10-28T07:18:56.243Z,101316.59
2022-10-28T07:19:58.276Z,101321.53
2022-10-28T07:21:02.192Z,101321.34
2022-10-28T07:22:04.314Z,101314.91
2022-10-28T07:23:07.207Z,101321.94
2022-10-28T07:24:10.299Z,101318.84
2022-10-28T07:25:13.309Z,101322.13
2022-10-28T07:26:15.255Z,101321.31
2022-10-28T07:27:18.112Z,101319.03
2022-10-28T07:28:20.250Z,101320.66
2022-10-28T07:29:23.174Z,101321.09
2022-10-28T07:30:27.386Z,101320.03
2022-10-28T07:31:31.440Z,101322.53
2022-10-28T07:32:34.738Z,101321.28
2022-10-28T07:33:37.651Z,101324.59
2022-10-28T07:34:40.587Z,101319.78
2022-10-28T07:35:42.886Z,101321.47
2022-10-28T07:36:45.745Z,101317.50
2022-10-28T07:37:47.910Z,101325.34
2022-10-28T07:38:51.925Z,101316.88
2022-10-28T07:39:53.958Z,101317.47
2022-10-28T07:40:56.825Z,101319.97
2022-10-28T07:42:01.209Z,101311.44
2022-10-28T07:43:04.111Z,101323.63
2022-10-28T07:44:07.835Z,101313.31
2022-10-28T07:45:11.337Z,101321.13
2022-10-28T07:46:15.948Z,101320.69
2022-10-28T07:47:20.140Z,101313.22
2022-10-28T07:48:23.081Z,101321.69
2022-10-28T07:49:26.089Z,101313.41
2022-10-28T07:50:28.032Z,101322.09
2022-10-28T07:51:31.238Z,101321.66
2022-10-28T07:52:34.924Z,101316.03
2022-10-28T07:53:37.882Z,101321.81
2022-10-28T07:54:39.822Z,101325.13
2022-10-28T07:55:42.679Z,101319.50
2022-10-28T07:56:44.646Z,101329.03
2022-10-28T07:57:47.524Z,101323.44
2022-10-28T07:58:49.496Z,101326.75
2022-10-28T07:59:52.532Z,101329.78
2022-10-28T08:00:55.731Z,101325.03
2022-10-28T08:02:00.127Z,101320.25
2022-10-28T08:03:03.622Z,101327.09
2022-10-28T08:04:05.830Z,101321.69
2022-10-28T08:05:09.242Z,101330.97
2022-10-28T08:06:12.940Z,101329.94
2022-10-28T08:07:16.484Z,101333.84
2022-10-28T08:08:18.411Z,101326.59
2022-10-28T08:09:21.297Z,101326.13
2022-10-28T08:10:23.171Z,101330.28
2022-10-28T08:11:26.397Z,101328.78
2022-10-28T08:12:28.491Z,101325.63
2022-10-28T08:13:35.720Z,101325.22
2022-10-28T08:14:39.755Z,101335.56
2022-10-28T08:15:41.634Z,101325.16
2022-10-28T08:16:44.574Z,101326.56
2022-10-28T08:17:53.676Z,101321.78
2022-10-28T08:18:56.821Z,101322.19
2022-10-28T08:19:59.857Z,101336.28
2022-10-28T08:21:02.689Z,101319.66
2022-10-28T08:22:05.747Z,101322.97
2022-10-28T08:23:08.637Z,101316.31
2022-10-28T08:24:11.549Z,101318.53
2022-10-28T08:25:13.648Z,101313.75
2022-10-28T08:26:17.518Z,101323.28
2022-10-28T08:27:19.422Z,101315.34
2022-10-28T08:28:22.818Z,101312.22
2022-10-28T08:29:29.092Z,101322.53
2022-10-28T08:30:40.301Z,101312.13
2022-10-28T08:31:53.354Z,101316.84
2022-10-28T08:32:56.820Z,101313.72
2022-10-28T08:34:00.114Z,101314.31
2022-10-28T08:35:02.176Z,101318.44
2022-10-28T08:36:05.605Z,101309.66
2022-10-28T08:37:08.589Z,101310.88
2022-10-28T08:38:10.867Z,101310.66
2022-10-28T08:39:13.812Z,101308.31
2022-10-28T08:40:16.080Z,101306.81
2022-10-28T08:41:30.554Z,101301.78
2022-10-28T08:42:41.169Z,101304.03
2022-10-28T08:43:58.016Z,101303.38
2022-10-28T08:45:25.313Z,101307.25
2022-10-28T08:46:43.289Z,101299.75
2022-10-28T08:47:55.380Z,101300.97
2022-10-28T08:49:02.158Z,101307.53
2022-10-28T08:50:13.603Z,101307.91
2022-10-28T08:51:21.047Z,101304.53
2022-10-28T08:52:32.945Z,101310.88
2022-10-28T08:53:40.338Z,101313.94
2022-10-28T08:54:47.281Z,101305.19
2022-10-28T08:55:53.735Z,101313.66
2022-10-28T08:56:58.720Z,101311.09
2022-10-28T08:58:08.816Z,101315.00
2022-10-28T08:59:17.437Z,101307.03
2022-10-28T09:00:23.970Z,101309.03
2022-10-28T09:01:42.048Z,101314.56
2022-10-28T09:02:53.451Z,101310.13
2022-10-28T09:03:56.754Z,101317.53
2022-10-28T09:05:06.051Z,101324.94
2022-10-28T09:06:11.457Z,101323.19
2022-10-28T09:07:17.492Z,101319.81
2022-10-28T09:08:23.801Z,101319.94
2022-10-28T09:09:26.773Z,101311.13
2022-10-28T09:10:54.320Z,101312.06
2022-10-28T09:12:13.549Z,101311.13
2022-10-28T09:13:26.698Z,101304.78
2022-10-28T09:14:42.782Z,101306.56
2022-10-28T09:15:53.982Z,101300.44
2022-10-28T09:17:09.071Z,101305.13
2022-10-28T09:18:19.492Z,101303.63
2022-10-28T09:19:38.017Z,101307.28
2022-10-28T09:20:52.862Z,101306.56
2022-10-28T09:22:07.712Z,101306.69
2022-10-28T09:23:21.471Z,101310.59
2022-10-28T09:24:29.945Z,101320.69
2022-10-28T09:25:40.331Z,101295.63
2022-10-28T09:26:51.471Z,101303.00
2022-10-28T09:28:07.358Z,101304.78
2022-10-28T09:29:26.348Z,101303.22
2022-10-28T09:30:38.601Z,101299.81
2022-10-28T09:31:46.672Z,101295.56
2022-10-28T09:32:58.320Z,101295.91
2022-10-28T09:34:13.214Z,101299.56
2022-10-28T09:35:20.365Z,101302.25
2022-10-28T09:36:32.698Z,101300.25
2022-10-28T09:37:40.097Z,101299.50
2022-10-28T09:38:43.058Z,101297.97
2022-10-28T09:39:49.497Z,101305.38
2022-10-28T09:40:58.623Z,101301.13
2022-10-28T09:42:03.894Z,101301.47
2022-10-28T09:43:12.640Z,101304.50
2022-10-28T09:44:22.300Z,101299.22
2022-10-28T09:45:29.487Z,101305.78
2022-10-28T09:46:36.171Z,101295.06
2022-10-28T09:47:45.505Z,101297.03
2022-10-28T09:48:50.011Z,101302.00
2022-10-28T09:49:58.145Z,101306.66
2022-10-28T09:51:00.923Z,101305.94
2022-10-28T09:52:15.288Z,101306.25
2022-10-28T09:53:26.458Z,101286.97
2022-10-28T09:54:35.089Z,101305.06
2022-10-28T09:55:37.115Z,101307.03
2022-10-28T09:56:41.026Z,101301.94
2022-10-28T09:57:44.516Z,101307.13
2022-10-28T09:58:47.520Z,101309.31
2022-10-28T09:59:50.504Z,101308.03
2022-10-28T10:00:52.478Z,101312.13
2022-10-28T10:01:55.682Z,101312.47
2022-10-28T10:02:59.602Z,101304.06
2022-10-28T10:04:02.597Z,101310.09
2022-10-28T10:05:16.911Z,101304.75
2022-10-28T10:06:23.891Z,101314.25
2022-10-28T10:07:33.500Z,101303.75
2022-10-28T10:08:37.523Z,101307.88
2022-10-28T10:09:41.306Z,101307.38
2022-10-28T10:10:49.448Z,101311.47
2022-10-28T10:11:56.770Z,101312.03
2022-10-28T10:13:03.799Z,101302.59
2022-10-28T10:14:09.447Z,101310.50
2022-10-28T10:15:26.769Z,101306.47
2022-10-28T10:16:39.998Z,101310.59
2022-10-28T10:17:46.106Z,101303.03
2022-10-28T10:18:54.253Z,101310.69
2022-10-28T10:20:08.250Z,101315.03
2022-10-28T10:21:11.172Z,101311.25
2022-10-28T10:22:31.219Z,101306.38
2022-10-28T10:23:37.106Z,101315.34
2022-10-28T10:24:47.104Z,101314.06
2022-10-28T10:25:58.494Z,101303.75
2022-10-28T10:27:14.062Z,101308.69
2022-10-28T10:28:17.722Z,101310.06
2022-10-28T10:29:23.304Z,101305.97
2022-10-28T10:30:47.872Z,101309.03
2022-10-28T10:32:21.967Z,101305.03
2022-10-28T10:33:39.034Z,101293.69
2022-10-28T10:35:06.997Z,101295.66
2022-10-28T10:36:17.049Z,101289.47
2022-10-28T10:37:21.233Z,101294.41
2022-10-28T10:38:27.159Z,101292.31
2022-10-28T10:39:35.151Z,101293.69
2022-10-28T10:40:48.177Z,101288.59
2022-10-28T10:41:52.767Z,101290.00
2022-10-28T10:43:24.766Z,101294.91
2022-10-28T10:44:33.478Z,101287.34
2022-10-28T10:45:36.445Z,101296.59
2022-10-28T10:46:38.443Z,101285.50
2022-10-28T10:47:41.457Z,101292.91
2022-10-28T10:48:45.448Z,101288.59
2022-10-28T10:49:47.464Z,101296.25
2022-10-28T10:50:51.563Z,101286.78
2022-10-28T10:51:54.618Z,101283.56
2022-10-28T10:52:59.031Z,101286.84
2022-10-28T10:54:03.344Z,101289.06
2022-10-28T10:55:08.165Z,101284.19
2022-10-28T10:56:13.171Z,101280.97
2022-10-28T10:57:19.181Z,101287.78
2022-10-28T10:58:24.167Z,101289.16
2022-10-28T10:59:29.976Z,101287.03
2022-10-28T11:00:36.592Z,101281.06
2022-10-28T11:01:41.164Z,101283.84
2022-10-28T11:02:50.003Z,101279.81
2022-10-28T11:04:00.317Z,101282.84
2022-10-28T11:05:05.317Z,101274.16
2022-10-28T11:06:22.960Z,101276.63
2022-10-28T11:07:28.302Z,101275.31
2022-10-28T11:08:37.458Z,101274.22
2022-10-28T11:09:43.262Z,101270.97
2022-10-28T11:11:02.538Z,101266.94
2022-10-28T11:12:16.357Z,101274.81
2022-10-28T11:13:28.301Z,101272.69
2022-10-28T11:14:33.038Z,101263.69
2022-10-28T11:15:36.006Z,101265.59
2022-10-28T11:16:49.352Z,101274.31
2022-10-28T11:17:58.199Z,101267.25
2022-10-28T11:19:20.346Z,101270.50
2022-10-28T11:21:50.235Z,101266.19
2022-10-28T11:23:05.228Z,101268.66
2022-10-28T11:24:21.590Z,101284.72
2022-10-28T11:25:36.689Z,101271.41
2022-10-28T11:26:48.885Z,101273.03
2022-10-28T11:28:01.559Z,101274.44
2022-10-28T11:29:12.958Z,101275.00
2022-10-28T11:30:17.126Z,101275.00
2022-10-28T11:31:48.076Z,101277.22
2022-10-28T11:33:02.201Z,101263.59
2022-10-28T11:34:52.128Z,101271.50
2022-10-28T11:36:02.693Z,101265.81
2022-10-28T11:37:14.510Z,101262.81
2022-10-28T11:38:31.467Z,101268.81
2022-10-28T11:39:37.370Z,101269.66
2022-10-28T11:40:54.673Z,101271.88
2022-10-28T11:42:14.083Z,101275.16
2022-10-28T11:43:29.130Z,101268.91
2022-10-28T11:44:42.562Z,101261.31
2022-10-28T11:45:51.374Z,101265.09
2022-10-28T11:47:07.921Z,101256.94
2022-10-28T11:48:28.229Z,101262.06
2022-10-28T11:50:09.031Z,101253.66
2022-10-28T11:51:26.179Z,101252.84
2022-10-28T11:52:45.625Z,101256.63
2022-10-28T11:54:05.882Z,101244.91
2022-10-28T11:55:19.497Z,101250.63
2022-10-28T11:56:31.984Z,101247.91
2022-10-28T11:57:50.005Z,101244.09
2022-10-28T11:59:05.500Z,101245.75
2022-10-28T12:00:21.986Z,101239.47
2022-10-28T12:01:41.077Z,101247.41
2022-10-28T12:04:48.976Z,101244.16
2022-10-28T12:05:59.187Z,101242.00
2022-10-28T12:07:34.066Z,101252.63
2022-10-28T12:08:45.634Z,101244.47
2022-10-28T12:10:02.874Z,101251.53
2022-10-28T12:11:19.905Z,101248.00
2022-10-28T12:12:37.265Z,101262.41
2022-10-28T12:13:52.418Z,101252.91
2022-10-28T12:15:02.983Z,101248.84
2022-10-28T12:16:14.392Z,101245.31
2022-10-28T12:17:25.658Z,101251.31
2022-10-28T12:18:34.718Z,101250.25
2022-10-28T12:19:42.790Z,101249.13
2022-10-28T12:20:53.760Z,101251.06
2022-10-28T12:22:04.312Z,101249.13
2022-10-28T12:23:14.729Z,101257.03
2022-10-28T12:24:22.149Z,101251.91
2022-10-28T12:25:29.974Z,101251.09
2022-10-28T12:26:39.101Z,101246.16
2022-10-28T12:27:48.172Z,101234.22
2022-10-28T12:28:54.850Z,101242.38
2022-10-28T12:30:01.445Z,101238.00
2022-10-28T12:31:08.748Z,101236.38
2022-10-28T12:32:14.981Z,101237.19
2022-10-28T12:33:21.131Z,101230.09
2022-10-28T12:34:31.169Z,101233.09
2022-10-28T12:35:37.660Z,101228.47
2022-10-28T12:36:45.399Z,101238.25
2022-10-28T12:37:53.754Z,101237.47
2022-10-28T12:39:01.740Z,101233.66
2022-10-28T12:40:13.005Z,101230.94
2022-10-28T12:41:17.748Z,101238.25
2022-10-28T12:42:26.347Z,101232.03
2022-10-28T12:43:35.402Z,101235.00
2022-10-28T12:44:39.735Z,101230.09
2022-10-28T12:45:43.497Z,101227.38